Time;durP1;ratioP1;P1;durP2;ratioP2;P2;SDS_P1;SDS_P2;PMS_P1;PMS_P2;Temp;Humidity;BMP_temperature;BMP_pressure;BME280_temperature;BME280_humidity;BME280_pressure;Samples;Min_cycle;Max_cycle;Signal;HPM_P1;HPM_P2
2021/09/16 00:01:04;;;;;;;12.80;7.90;;;;;;;17.38;99.09;99970.66;6294926;28;20101;-76
2021/09/16 00:04:05;;;;;;;9.85;7.93;;;;;;;17.33;99.15;99969.28;6295279;28;20697;-77
2021/09/16 00:07:06;;;;;;;10.25;7.95;;;;;;;17.24;99.06;99970.13;6296333;28;20069;-77
2021/09/16 00:10:07;;;;;;;12.05;8.52;;;;;;;17.23;99.81;99962.34;6295261;28;20094;-77
2021/09/16 00:13:08;;;;;;;11.32;7.65;;;;;;;17.21;100.00;99965.09;6296113;28;20491;-77
2021/09/16 00:16:09;;;;;;;10.23;7.93;;;;;;;17.21;99.93;99966.91;6296430;28;20044;-77
2021/09/16 00:19:10;;;;;;;12.10;8.07;;;;;;;17.18;100.00;99967.22;6296376;28;20052;-77
2021/09/16 00:22:11;;;;;;;11.10;7.57;;;;;;;17.08;100.00;99968.03;6296173;28;20544;-77
2021/09/16 00:25:12;;;;;;;12.30;8.00;;;;;;;17.00;100.00;99967.88;6278269;28;20076;-75
2021/09/16 00:28:13;;;;;;;15.45;8.38;;;;;;;17.03;100.00;99964.16;6296346;28;20048;-75
2021/09/16 00:31:13;;;;;;;12.37;7.90;;;;;;;16.99;100.00;99960.94;6299170;28;20133;-75
2021/09/16 00:34:14;;;;;;;11.93;8.73;;;;;;;16.95;100.00;99959.56;6282822;28;20048;-77
2021/09/16 00:37:16;;;;;;;13.02;8.38;;;;;;;16.98;100.00;99951.38;6300310;28;20052;-74
2021/09/16 00:40:17;;;;;;;12.45;8.10;;;;;;;16.93;100.00;99958.88;6300425;28;20048;-74
2021/09/16 00:43:18;;;;;;;14.95;8.48;;;;;;;16.86;100.00;99949.81;6299946;28;20045;-75
2021/09/16 00:46:19;;;;;;;9.93;7.82;;;;;;;16.84;100.00;99952.63;6282424;28;20045;-74
2021/09/16 00:49:20;;;;;;;14.73;7.90;;;;;;;16.89;100.00;99958.28;6299928;28;20048;-74
2021/09/16 00:52:22;;;;;;;14.90;8.93;;;;;;;16.83;100.00;99960.66;6299805;28;20052;-74
2021/09/16 00:55:25;;;;;;;12.35;8.23;;;;;;;16.73;100.00;99952.69;6298677;28;20048;-75
2021/09/16 00:58:29;;;;;;;11.50;7.80;;;;;;;16.62;100.00;99955.44;6299830;28;20036;-75
2021/09/16 01:01:30;;;;;;;13.23;8.50;;;;;;;16.57;100.00;99950.56;6298521;28;20083;-74
2021/09/16 01:04:32;;;;;;;13.85;8.35;;;;;;;16.52;100.00;99950.16;6298647;28;20049;-75
2021/09/16 01:07:36;;;;;;;10.98;8.60;;;;;;;16.42;100.00;99949.28;6298392;28;20044;-75
2021/09/16 01:10:37;;;;;;;11.68;8.68;;;;;;;16.37;100.00;99947.06;6281725;28;20052;-77
2021/09/16 01:13:38;;;;;;;13.20;8.70;;;;;;;16.31;100.00;99945.78;6298440;28;20063;-77
2021/09/16 01:16:38;;;;;;;12.93;8.45;;;;;;;16.37;100.00;99940.94;6298197;28;20817;-75
2021/09/16 01:19:39;;;;;;;11.85;8.30;;;;;;;16.32;100.00;99944.81;6313879;28;20158;-75
2021/09/16 01:22:40;;;;;;;12.43;8.65;;;;;;;16.37;100.00;99941.78;6296919;28;20051;-77
2021/09/16 01:25:41;;;;;;;11.18;8.68;;;;;;;16.34;100.00;99930.69;6296951;28;20042;-74
2021/09/16 01:28:42;;;;;;;13.55;8.82;;;;;;;16.33;100.00;99932.50;6297737;28;20067;-75
2021/09/16 01:31:49;;;;;;;11.82;8.80;;;;;;;16.23;100.00;99926.38;6281188;28;20032;-76
2021/09/16 01:34:50;;;;;;;12.48;8.35;;;;;;;16.18;100.00;99936.44;6299202;28;20105;-77
2021/09/16 01:37:52;;;;;;;11.37;8.27;;;;;;;16.18;100.00;99929.38;6281401;28;20064;-76
2021/09/16 01:40:52;;;;;;;10.82;8.73;;;;;;;16.20;100.00;99926.63;6296521;28;20550;-77
2021/09/16 01:43:53;;;;;;;10.32;7.80;;;;;;;16.23;100.00;99926.38;6298963;28;20051;-76
2021/09/16 01:46:54;;;;;;;12.07;8.05;;;;;;;16.21;100.00;99933.56;6298679;28;20040;-74
2021/09/16 01:49:55;;;;;;;12.48;8.30;;;;;;;16.18;100.00;99933.81;6297329;28;20143;-75
2021/09/16 01:52:56;;;;;;;12.07;8.48;;;;;;;16.15;100.00;99934.91;6298254;28;20483;-75
2021/09/16 01:55:56;;;;;;;12.75;8.20;;;;;;;16.07;100.00;99932.94;6280783;28;20044;-75
2021/09/16 01:58:57;;;;;;;9.88;7.90;;;;;;;16.02;100.00;99931.66;6280525;28;20076;-75
2021/09/16 02:01:58;;;;;;;14.10;8.25;;;;;;;16.03;100.00;99926.25;6298365;28;20048;-75
2021/09/16 02:04:59;;;;;;;10.23;8.32;;;;;;;16.03;100.00;99923.63;6296957;28;20048;-74
2021/09/16 02:08:00;;;;;;;11.57;8.30;;;;;;;15.97;100.00;99920.72;6296957;28;20045;-74
2021/09/16 02:11:01;;;;;;;11.63;7.90;;;;;;;15.87;100.00;99925.91;6296860;28;20455;-75
2021/09/16 02:14:01;;;;;;;12.73;8.48;;;;;;;15.88;100.00;99917.06;6296682;28;20078;-74
2021/09/16 02:17:02;;;;;;;10.18;7.97;;;;;;;15.82;100.00;99922.84;6297807;28;20045;-75
2021/09/16 02:20:03;;;;;;;10.97;8.23;;;;;;;15.82;100.00;99921.06;6296446;28;20064;-75
2021/09/16 02:23:05;;;;;;;10.70;8.13;;;;;;;15.78;100.00;99922.28;6297627;28;20485;-75
2021/09/16 02:26:05;;;;;;;10.17;8.83;;;;;;;15.76;100.00;99923.38;6313591;28;20052;-75
2021/09/16 02:29:06;;;;;;;13.55;7.70;;;;;;;15.79;100.00;99921.28;6297639;28;20091;-77
2021/09/16 02:32:08;;;;;;;14.13;8.93;;;;;;;15.74;100.00;99923.50;6297818;28;20574;-77
2021/09/16 02:35:11;;;;;;;16.02;8.00;;;;;;;15.70;100.00;99925.50;6296435;28;20147;-76
2021/09/16 02:38:11;;;;;;;11.10;8.55;;;;;;;15.63;100.00;99926.19;6296555;28;20044;-77
2021/09/16 02:41:13;;;;;;;10.93;8.68;;;;;;;15.63;100.00;99911.22;6297723;28;20059;-77
2021/09/16 02:44:13;;;;;;;14.32;8.52;;;;;;;15.61;100.00;99920.22;6296854;28;20110;-77
2021/09/16 02:47:14;;;;;;;12.18;8.05;;;;;;;15.59;100.00;99919.50;6294852;28;20475;-77
2021/09/16 02:50:15;;;;;;;12.30;8.38;;;;;;;15.57;100.00;99919.63;6295113;28;20036;-77
2021/09/16 02:53:16;;;;;;;12.05;8.15;;;;;;;15.56;100.00;99917.13;6296175;28;20040;-77
2021/09/16 02:56:17;;;;;;;12.07;8.15;;;;;;;15.63;100.00;99918.28;6295933;28;20036;-77
2021/09/16 02:59:17;;;;;;;11.85;8.68;;;;;;;15.66;100.00;99920.66;6297048;28;20482;-74
2021/09/16 03:02:18;;;;;;;11.88;8.60;;;;;;;15.68;100.00;99926.63;6278986;28;20101;-75
2021/09/16 03:05:19;;;;;;;11.48;8.27;;;;;;;15.62;100.00;99916.59;6296942;28;20135;-74
2021/09/16 03:08:20;;;;;;;10.57;7.90;;;;;;;15.54;100.00;99917.25;6295646;28;20056;-74
2021/09/16 03:11:21;;;;;;;12.20;8.23;;;;;;;15.52;100.00;99909.50;6297031;28;20083;-77
2021/09/16 03:14:21;;;;;;;9.38;8.07;;;;;;;15.53;100.00;99910.34;6295915;28;20044;-77
2021/09/16 03:17:22;;;;;;;10.73;8.65;;;;;;;15.47;100.00;99914.31;6295863;28;20127;-77
2021/09/16 03:20:23;;;;;;;13.15;8.88;;;;;;;15.40;100.00;99912.31;6296878;28;20131;-77
2021/09/16 03:23:24;;;;;;;15.47;9.17;;;;;;;15.39;100.00;99918.53;6297062;28;20041;-77
2021/09/16 03:26:26;;;;;;;14.40;8.98;;;;;;;15.40;100.00;99917.56;6296823;28;20063;-77
2021/09/16 03:29:27;;;;;;;;;;;;;;;15.30;100.00;99910.47;6297109;28;20118;-77
2021/09/16 03:32:28;;;;;;;12.38;8.25;;;;;;;15.31;100.00;99906.03;6295373;28;19921;-74
2021/09/16 03:35:29;;;;;;;13.55;8.60;;;;;;;15.27;100.00;99912.50;6296542;28;20483;-75
2021/09/16 03:38:30;;;;;;;15.95;8.23;;;;;;;15.20;100.00;99903.47;6296689;28;20044;-77
2021/09/16 03:41:31;;;;;;;13.13;8.77;;;;;;;15.20;100.00;99906.94;6295615;28;20083;-77
2021/09/16 03:44:32;;;;;;;11.70;8.45;;;;;;;15.18;100.00;99915.91;6296362;28;20044;-75
2021/09/16 03:47:32;;;;;;;13.77;8.35;;;;;;;15.13;100.00;99902.28;6296635;28;20040;-77
2021/09/16 03:50:34;;;;;;;11.18;8.68;;;;;;;15.18;100.00;99910.66;6278504;28;20094;-77
2021/09/16 03:53:35;;;;;;;13.63;8.93;;;;;;;15.11;100.00;99908.53;6296507;28;20056;-77
2021/09/16 03:56:35;;;;;;;12.23;8.50;;;;;;;15.08;100.00;99911.38;6295458;28;20044;-77
2021/09/16 03:59:36;;;;;;;14.25;8.75;;;;;;;15.11;100.00;99913.78;6295231;28;20044;-77
2021/09/16 04:02:37;;;;;;;11.65;8.20;;;;;;;15.14;100.00;99907.44;6279744;28;20449;-77
2021/09/16 04:05:40;;;;;;;11.70;8.65;;;;;;;15.17;100.00;99907.16;6301382;28;20040;-75
2021/09/16 04:08:45;;;;;;;10.75;8.15;;;;;;;15.11;100.00;99905.03;6300849;28;20175;-75
2021/09/16 04:11:45;;;;;;;15.98;8.60;;;;;;;15.08;100.00;99905.31;6299772;28;20425;-74
2021/09/16 04:14:46;;;;;;;12.48;8.48;;;;;;;15.07;100.00;99901.00;6281908;28;20090;-75
2021/09/16 04:17:47;;;;;;;12.10;8.77;;;;;;;15.03;100.00;99905.69;6300487;28;20075;-75
2021/09/16 04:20:48;;;;;;;13.65;9.38;;;;;;;15.05;100.00;99903.78;6300130;28;20161;-77
2021/09/16 04:23:49;;;;;;;12.75;8.60;;;;;;;15.09;100.00;99906.97;6299600;28;20056;-77
2021/09/16 04:26:49;;;;;;;11.57;9.05;;;;;;;15.03;100.00;99917.97;6299381;28;20139;-76
2021/09/16 04:29:50;;;;;;;11.60;9.20;;;;;;;14.93;100.00;99911.81;6300674;28;20410;-77
2021/09/16 04:32:51;;;;;;;10.98;8.43;;;;;;;14.87;100.00;99924.50;6300265;28;20618;-75
2021/09/16 04:35:52;;;;;;;23.17;9.87;;;;;;;14.94;100.00;99911.69;6300358;28;20051;-75
2021/09/16 04:38:53;;;;;;;13.93;8.98;;;;;;;15.05;100.00;99913.44;6300418;28;20461;-77
2021/09/16 04:41:54;;;;;;;12.40;9.20;;;;;;;14.98;100.00;99909.66;6299205;28;20592;-77
2021/09/16 04:44:55;;;;;;;12.35;8.65;;;;;;;14.95;100.00;99910.75;6266062;28;20548;-77
2021/09/16 04:47:55;;;;;;;14.25;9.80;;;;;;;15.00;100.00;99899.84;6298538;28;20040;-75
2021/09/16 04:50:56;;;;;;;13.90;8.60;;;;;;;15.14;100.00;99911.88;6297733;28;20040;-77
2021/09/16 04:53:57;;;;;;;12.35;8.38;;;;;;;15.10;100.00;99914.72;6297882;28;20048;-77
2021/09/16 04:56:58;;;;;;;12.70;8.82;;;;;;;15.06;100.00;99917.75;6298529;28;20394;-76
2021/09/16 04:59:58;;;;;;;17.05;9.75;;;;;;;15.13;100.00;99907.56;6280759;28;20040;-77
2021/09/16 05:02:59;;;;;;;14.43;9.25;;;;;;;15.18;100.00;99908.03;6297213;28;20437;-75
2021/09/16 05:06:00;;;;;;;13.45;8.90;;;;;;;15.26;100.00;99909.03;6297075;28;20119;-77
2021/09/16 05:09:01;;;;;;;13.27;9.50;;;;;;;15.35;100.00;99912.69;6263993;28;20093;-77
2021/09/16 05:12:02;;;;;;;12.43;8.75;;;;;;;15.37;100.00;99910.78;6296803;28;20036;-76
2021/09/16 05:15:03;;;;;;;15.35;9.50;;;;;;;15.50;100.00;99913.22;6298286;28;20136;-76
2021/09/16 05:18:04;;;;;;;19.73;10.20;;;;;;;15.55;100.00;99907.59;6298091;28;20049;-77
2021/09/16 05:21:05;;;;;;;14.38;10.63;;;;;;;15.54;100.00;99905.91;6296819;28;20281;-75
2021/09/16 05:24:06;;;;;;;13.13;9.18;;;;;;;15.61;100.00;99900.00;6296592;28;20064;-74
2021/09/16 05:27:06;;;;;;;13.07;9.38;;;;;;;15.60;100.00;99900.94;6280003;28;20510;-75
2021/09/16 05:30:08;;;;;;;13.13;8.95;;;;;;;15.73;100.00;99907.84;6297699;28;20126;-75
2021/09/16 05:33:11;;;;;;;10.63;8.38;;;;;;;15.79;100.00;99902.88;6297787;28;20479;-75
2021/09/16 05:36:12;;;;;;;12.00;8.85;;;;;;;15.89;100.00;99901.13;6297642;28;20040;-75
2021/09/16 05:39:13;;;;;;;12.07;8.77;;;;;;;16.00;100.00;99910.75;6279606;28;20059;-74
2021/09/16 05:42:13;;;;;;;14.35;8.27;;;;;;;16.09;100.00;99907.31;6297391;28;20041;-75
2021/09/16 05:45:14;;;;;;;15.77;8.45;;;;;;;16.20;100.00;99895.03;6297237;28;20072;-74
2021/09/16 05:48:15;;;;;;;16.10;8.65;;;;;;;16.38;100.00;99908.38;6297306;28;20044;-75
2021/09/16 05:51:16;;;;;;;10.15;8.25;;;;;;;16.55;100.00;99906.91;6295680;28;20487;-77
2021/09/16 05:54:17;;;;;;;14.38;7.90;;;;;;;16.76;100.00;99902.38;6329968;28;20048;-76
2021/09/16 05:57:18;;;;;;;11.68;7.70;;;;;;;17.03;100.00;99914.06;6295951;28;20082;-76
2021/09/16 06:00:19;;;;;;;12.98;7.53;;;;;;;17.32;100.00;99906.97;6297044;28;20044;-74
2021/09/16 06:03:20;;;;;;;21.17;8.10;;;;;;;17.68;95.83;99901.88;6279254;28;20055;-75
2021/09/16 06:06:20;;;;;;;15.40;7.45;;;;;;;18.11;90.10;99912.91;6296947;28;20072;-76
2021/09/16 06:09:21;;;;;;;9.68;6.18;;;;;;;18.62;81.92;99914.16;6279068;28;20131;-76
2021/09/16 06:12:26;;;;;;;10.43;5.70;;;;;;;18.96;79.53;99916.16;6296531;28;20045;-74
2021/09/16 06:15:27;;;;;;;15.20;5.78;;;;;;;19.11;78.26;99919.97;6296697;28;20044;-75
2021/09/16 06:18:28;;;;;;;17.30;5.53;;;;;;;19.37;76.64;99920.97;6296676;28;20147;-76
2021/09/16 06:21:28;;;;;;;19.88;6.88;;;;;;;19.55;75.94;99918.31;6296519;28;20410;-76
2021/09/16 06:24:29;;;;;;;19.07;5.37;;;;;;;19.69;74.94;99915.09;6295077;28;20403;-75
2021/09/16 06:27:30;;;;;;;11.83;5.80;;;;;;;19.82;74.00;99922.66;6294719;28;20044;-76
2021/09/16 06:30:31;;;;;;;12.13;5.60;;;;;;;19.98;72.24;99912.16;6294828;28;20418;-75
2021/09/16 06:33:31;;;;;;;15.47;6.13;;;;;;;20.19;72.53;99917.03;6296295;28;20039;-75
2021/09/16 06:36:32;;;;;;;14.27;6.60;;;;;;;20.24;71.42;99919.19;6278508;28;20486;-74
2021/09/16 06:39:33;;;;;;;10.63;5.73;;;;;;;20.20;72.12;99912.56;6295037;28;20075;-76
2021/09/16 06:42:34;;;;;;;14.97;5.73;;;;;;;20.44;70.96;99903.88;6294881;28;20491;-76
2021/09/16 06:45:35;;;;;;;11.00;5.80;;;;;;;20.75;69.26;99900.66;6296023;28;20124;-76
2021/09/16 06:48:35;;;;;;;9.80;5.53;;;;;;;20.99;69.86;99905.19;6294740;28;20040;-75
2021/09/16 06:51:36;;;;;;;17.43;5.87;;;;;;;21.23;67.33;99907.00;6294310;28;20139;-75
2021/09/16 06:54:37;;;;;;;12.20;4.87;;;;;;;21.40;66.55;99907.84;6294625;28;20440;-75
2021/09/16 06:57:38;;;;;;;16.10;4.90;;;;;;;21.52;63.54;99917.97;6277833;28;20090;-74
2021/09/16 07:00:38;;;;;;;25.33;5.67;;;;;;;21.61;64.39;99924.09;6295531;28;20052;-75
2021/09/16 07:03:39;;;;;;;26.80;4.93;;;;;;;21.86;60.51;99930.16;6295538;28;20044;-75
2021/09/16 07:06:40;;;;;;;15.47;5.47;;;;;;;22.04;60.47;99915.88;6294308;28;20036;-76
2021/09/16 07:09:40;;;;;;;16.80;5.00;;;;;;;22.31;59.53;99927.91;6295598;28;20470;-76
2021/09/16 07:12:41;;;;;;;18.43;5.83;;;;;;;22.53;59.48;99923.66;6295334;28;20503;-76
2021/09/16 07:15:42;;;;;;;13.03;5.10;;;;;;;22.72;56.92;99928.53;6295279;28;20410;-75
2021/09/16 07:18:44;;;;;;;11.82;4.80;;;;;;;22.91;57.10;99932.53;6294089;28;20098;-74
2021/09/16 07:21:44;;;;;;;19.00;4.83;;;;;;;22.93;55.39;99930.53;6295331;28;20044;-75
2021/09/16 07:24:45;;;;;;;5.32;4.30;;;;;;;22.93;56.56;99940.34;6293902;28;20356;-75
2021/09/16 07:27:47;;;;;;;14.80;4.40;;;;;;;22.96;55.05;99928.53;6293910;28;20044;-76
2021/09/16 07:30:48;;;;;;;17.55;4.68;;;;;;;22.83;56.00;99929.13;6293765;28;20101;-76
2021/09/16 07:33:49;;;;;;;8.37;4.67;;;;;;;22.74;56.57;99926.50;6294988;28;20048;-76
2021/09/16 07:36:50;;;;;;;20.83;5.53;;;;;;;22.78;56.42;99924.34;6293791;28;20473;-76
2021/09/16 07:39:51;;;;;;;9.93;4.40;;;;;;;22.90;57.01;99924.75;6277203;28;20041;-76
2021/09/16 07:42:51;;;;;;;18.50;4.30;;;;;;;22.98;55.92;99921.19;6293664;28;20083;-76
2021/09/16 07:45:52;;;;;;;11.17;4.17;;;;;;;23.10;55.17;99927.78;6293664;28;20049;-76
2021/09/16 07:48:53;;;;;;;9.40;4.43;;;;;;;23.17;54.37;99925.28;6293665;28;20040;-76
2021/09/16 07:51:54;;;;;;;11.93;4.20;;;;;;;23.22;54.15;99917.56;6293294;28;20079;-76
2021/09/16 07:54:54;;;;;;;8.70;4.43;;;;;;;23.31;54.23;99929.81;6293670;28;20107;-76
2021/09/16 07:57:55;;;;;;;10.27;4.30;;;;;;;23.36;53.48;99930.09;6293737;28;20127;-77
2021/09/16 08:00:56;;;;;;;12.80;4.23;;;;;;;23.42;54.22;99940.00;6294797;28;20046;-75
2021/09/16 08:03:56;;;;;;;15.90;4.63;;;;;;;23.38;53.58;99933.41;6276868;28;20036;-76
2021/09/16 08:06:57;;;;;;;10.30;4.07;;;;;;;23.36;53.75;99930.09;6293387;28;20037;-77
2021/09/16 08:09:58;;;;;;;10.27;4.70;;;;;;;23.36;54.30;99937.25;6293494;28;20040;-76
2021/09/16 08:12:58;;;;;;;9.27;4.03;;;;;;;23.39;54.28;99943.06;6293199;28;20033;-75
2021/09/16 08:15:59;;;;;;;10.33;4.37;;;;;;;23.44;54.87;99931.84;6293465;28;20036;-75
2021/09/16 08:19:01;;;;;;;11.03;3.83;;;;;;;23.40;53.79;99935.88;6276650;28;20136;-75
2021/09/16 08:22:02;;;;;;;16.02;3.78;;;;;;;23.39;54.05;99940.38;6276534;28;20491;-75
2021/09/16 08:25:05;;;;;;;9.77;4.00;;;;;;;23.42;52.63;99940.00;6293176;28;20041;-75
2021/09/16 08:28:06;;;;;;;14.10;4.40;;;;;;;23.45;52.71;99942.34;6294301;28;20044;-76
2021/09/16 08:31:08;;;;;;;9.47;4.33;;;;;;;23.42;53.71;99945.34;6276409;28;20120;-76
2021/09/16 08:34:08;;;;;;;9.80;3.72;;;;;;;23.41;53.20;99946.38;6293135;28;20162;-77
2021/09/16 08:37:11;;;;;;;14.27;4.40;;;;;;;23.50;53.47;99947.09;6294406;28;20124;-77
2021/09/16 08:40:12;;;;;;;12.82;4.38;;;;;;;23.47;52.97;99955.44;6294067;28;20280;-76
2021/09/16 08:43:13;;;;;;;7.78;4.18;;;;;;;23.48;53.18;99952.59;6292893;28;20131;-76
2021/09/16 08:46:14;;;;;;;10.38;3.80;;;;;;;23.39;54.51;99947.53;6294130;28;20479;-77
2021/09/16 08:49:15;;;;;;;9.27;4.63;;;;;;;23.39;55.38;99947.53;6278237;28;20044;-75
2021/09/16 08:52:16;;;;;;;10.23;4.87;;;;;;;23.43;53.98;99949.66;6297024;28;20131;-75
2021/09/16 08:55:19;;;;;;;5.85;4.28;;;;;;;23.50;54.74;99947.09;6297333;28;20064;-76
2021/09/16 08:58:24;;;;;;;11.50;4.10;;;;;;;23.61;53.71;99936.00;6297107;28;20058;-77
2021/09/16 09:01:25;;;;;;;9.90;4.47;;;;;;;23.67;54.83;99943.28;6298858;28;20499;-75
2021/09/16 09:04:26;;;;;;;11.27;3.97;;;;;;;23.81;52.60;99940.84;6298446;28;20043;-75
2021/09/16 09:07:37;;;;;;;11.63;4.20;;;;;;;23.91;53.74;99939.56;6298191;28;20052;-77
2021/09/16 09:10:46;;;;;;;7.63;4.03;;;;;;;23.85;53.31;99934.97;6297024;28;20058;-77
2021/09/16 09:13:56;;;;;;;10.18;4.20;;;;;;;23.91;52.33;99936.09;6296749;28;20569;-75
2021/09/16 09:17:00;;;;;;;6.80;4.40;;;;;;;24.03;53.49;99928.44;6298077;28;20541;-74
2021/09/16 09:20:10;;;;;;;5.90;3.95;;;;;;;24.08;53.31;99926.88;6296665;28;20040;-76
2021/09/16 09:23:35;;;;;;;9.20;3.90;;;;;;;24.21;52.06;99928.88;6296662;28;20046;-74
2021/09/16 09:26:39;;;;;;;6.13;3.90;;;;;;;24.27;51.29;99924.66;6296694;28;20043;-75
2021/09/16 09:29:40;;;;;;;8.73;3.45;;;;;;;24.44;50.50;99928.78;6296619;28;20043;-75
2021/09/16 09:33:03;;;;;;;7.07;4.03;;;;;;;24.56;51.41;99923.81;6296329;28;20037;-75
2021/09/16 09:36:14;;;;;;;5.55;3.95;;;;;;;24.64;50.26;99929.03;6296391;28;20040;-75
2021/09/16 09:39:14;;;;;;;6.97;3.58;;;;;;;24.80;48.80;99917.31;6296295;28;20041;-75
2021/09/16 09:42:21;;;;;;;15.07;4.40;;;;;;;24.88;49.81;99916.34;6296139;28;20577;-77
2021/09/16 09:45:22;;;;;;;10.40;4.57;;;;;;;25.01;47.60;99918.31;6297529;28;20120;-75
2021/09/16 09:48:23;;;;;;;8.90;3.60;;;;;;;25.27;47.94;99918.59;6296037;28;20101;-77
2021/09/16 09:51:58;;;;;;;8.43;3.78;;;;;;;25.36;46.49;99913.94;6295744;28;20499;-77
2021/09/16 09:54:58;;;;;;;11.10;4.05;;;;;;;25.39;46.29;99916.22;6284547;28;20068;-75
2021/09/16 09:58:03;;;;;;;7.22;3.83;;;;;;;25.47;46.57;99899.22;6295901;28;20134;-77
2021/09/16 10:01:35;;;;;;;11.15;4.47;;;;;;;25.61;45.89;99906.31;6296012;28;20045;-77
2021/09/16 10:04:36;;;;;;;6.88;3.58;;;;;;;25.68;46.41;99906.38;6296880;28;20043;-75
2021/09/16 10:07:38;;;;;;;11.00;4.03;;;;;;;25.54;44.66;99894.75;6296797;28;20119;-75
2021/09/16 10:10:43;;;;;;;6.55;3.63;;;;;;;25.47;45.02;99896.53;6295520;28;20486;-76
2021/09/16 10:13:43;;;;;;;7.25;3.55;;;;;;;25.42;45.42;99899.81;6295337;28;20075;-77
2021/09/16 10:16:45;;;;;;;7.03;3.73;;;;;;;25.49;48.00;99897.19;6295429;28;20032;-77
2021/09/16 10:19:46;;;;;;;13.65;3.30;;;;;;;25.52;45.50;99897.63;6296529;28;20686;-76
2021/09/16 10:22:52;;;;;;;13.27;3.50;;;;;;;25.62;45.43;99889.25;6278697;28;20048;-77
2021/09/16 10:25:54;;;;;;;10.25;3.40;;;;;;;25.73;44.24;99891.38;6295356;28;20491;-77
2021/09/16 10:28:54;;;;;;;4.88;3.08;;;;;;;25.95;44.91;99882.50;6278851;28;20064;-78
2021/09/16 10:32:07;;;;;;;9.63;3.73;;;;;;;26.14;45.00;99881.75;6296962;28;20387;-77
2021/09/16 10:35:19;;;;;;;6.60;3.72;;;;;;;26.30;42.23;99886.75;6296196;28;20040;-77
2021/09/16 10:38:28;;;;;;;16.10;4.10;;;;;;;26.45;44.47;99883.09;6278346;28;20453;-76
2021/09/16 10:41:30;;;;;;;11.48;4.05;;;;;;;26.79;43.52;99878.66;6295162;28;20043;-76
2021/09/16 10:44:30;;;;;;;6.75;3.35;;;;;;;26.94;41.41;99882.81;6296109;28;20406;-76
2021/09/16 10:47:31;;;;;;;9.68;4.28;;;;;;;26.98;41.82;99875.19;6296275;28;20037;-75
2021/09/16 10:50:44;;;;;;;7.85;3.67;;;;;;;27.04;43.52;99862.84;6294784;28;20052;-76
2021/09/16 10:53:46;;;;;;;8.30;4.05;;;;;;;27.30;42.56;99875.41;6295746;28;20045;-76
2021/09/16 10:56:57;;;;;;;8.80;3.85;;;;;;;27.53;42.67;99866.97;6295891;28;20043;-76
2021/09/16 10:59:58;;;;;;;8.65;3.42;;;;;;;27.50;42.74;99862.81;6295835;28;20124;-76
2021/09/16 11:03:01;;;;;;;7.47;3.97;;;;;;;27.51;39.72;99855.63;6295744;28;20048;-74
2021/09/16 11:06:02;;;;;;;8.70;3.40;;;;;;;27.44;40.27;99855.63;6295639;28;20388;-75
2021/09/16 11:09:04;;;;;;;6.57;3.80;;;;;;;27.53;41.86;99854.38;6277910;28;20044;-75
2021/09/16 11:12:05;;;;;;;8.90;3.60;;;;;;;27.70;42.23;99845.88;6295079;28;20041;-75
2021/09/16 11:15:06;;;;;;;14.02;3.90;;;;;;;27.65;42.75;99843.81;6294312;28;20377;-75
2021/09/16 11:18:13;;;;;;;15.55;3.67;;;;;;;27.67;43.73;99848.97;6278210;28;20041;-75
2021/09/16 11:21:20;;;;;;;12.30;3.35;;;;;;;27.80;41.57;99832.03;6296275;28;20047;-75
2021/09/16 11:24:29;;;;;;;6.85;3.50;;;;;;;27.80;39.33;99845.41;6295068;28;20049;-76
2021/09/16 11:27:33;;;;;;;14.38;3.88;;;;;;;27.93;39.85;99838.19;6293688;28;20067;-75
2021/09/16 11:30:36;;;;;;;12.68;3.78;;;;;;;28.10;41.40;99835.84;6295040;28;20062;-75
2021/09/16 11:33:36;;;;;;;14.95;3.58;;;;;;;27.92;40.14;99833.88;6294020;28;20471;-74
2021/09/16 11:36:57;;;;;;;14.73;3.75;;;;;;;28.06;40.64;99825.75;6269748;28;20044;-76
2021/09/16 11:40:07;;;;;;;21.67;4.20;;;;;;;28.13;42.14;99821.22;6248118;28;20080;-75
2021/09/16 11:43:12;;;;;;;12.10;3.60;;;;;;;28.23;41.94;99810.84;6277521;28;20073;-76
2021/09/16 11:46:14;;;;;;;8.27;3.72;;;;;;;28.34;38.77;99812.00;6245257;28;20049;-76
2021/09/16 11:49:15;;;;;;;10.35;3.97;;;;;;;28.25;39.29;99811.44;6244028;28;20068;-76
2021/09/16 11:52:22;;;;;;;12.68;3.92;;;;;;;28.56;38.65;99809.00;6256626;28;20053;-76
2021/09/16 11:55:24;;;;;;;10.73;3.92;;;;;;;28.98;39.41;99804.75;6269894;28;20033;-76
2021/09/16 11:58:40;;;;;;;10.10;4.40;;;;;;;28.73;38.25;99804.75;6269959;28;20511;-76
2021/09/16 12:01:40;;;;;;;11.50;4.25;;;;;;;28.69;38.19;99795.50;6266862;28;20055;-76
2021/09/16 12:04:41;;;;;;;8.63;4.03;;;;;;;28.77;36.62;99803.28;6285139;28;20041;-76
2021/09/16 12:07:42;;;;;;;11.20;4.03;;;;;;;28.70;38.60;99791.75;6277464;28;20049;-77
2021/09/16 12:10:49;;;;;;;13.32;3.88;;;;;;;28.71;38.55;99782.66;6245298;28;20046;-76
2021/09/16 12:13:53;;;;;;;11.45;3.83;;;;;;;28.78;37.26;99783.44;6227836;28;20175;-76
2021/09/16 12:17:02;;;;;;;11.77;4.00;;;;;;;28.91;39.34;99775.28;6244029;28;20042;-76
2021/09/16 12:20:03;;;;;;;8.88;4.05;;;;;;;29.00;37.69;99781.16;6260548;28;20443;-76
2021/09/16 12:23:04;;;;;;;9.95;4.38;;;;;;;28.98;39.05;99774.38;6277290;28;20045;-76
2021/09/16 12:26:05;;;;;;;8.63;3.88;;;;;;;29.03;37.57;99763.78;6249330;28;20133;-76
2021/09/16 12:29:11;;;;;;;13.02;4.50;;;;;;;28.88;36.07;99764.97;6282361;28;20038;-76
2021/09/16 12:32:12;;;;;;;12.48;3.80;;;;;;;28.78;37.82;99753.06;6249715;28;20068;-76
2021/09/16 12:35:17;;;;;;;17.17;4.50;;;;;;;28.95;37.55;99756.81;6281227;28;20042;-76
2021/09/16 12:38:18;;;;;;;10.20;4.20;;;;;;;28.96;37.70;99753.13;6265110;28;20057;-75
2021/09/16 12:41:25;;;;;;;8.75;4.15;;;;;;;28.83;38.88;99748.69;6248241;28;20054;-75
2021/09/16 12:44:34;;;;;;;10.07;3.95;;;;;;;28.79;38.44;99750.19;6249258;28;20045;-75
2021/09/16 12:47:44;;;;;;;13.68;4.55;;;;;;;28.91;36.70;99756.47;6248196;28;20038;-75
2021/09/16 12:50:45;;;;;;;10.70;4.60;;;;;;;28.99;37.48;99760.72;6247905;28;20459;-75
2021/09/16 12:53:52;;;;;;;23.13;4.20;;;;;;;29.06;37.03;99756.13;6281108;28;20508;-75
2021/09/16 12:56:54;;;;;;;15.80;4.22;;;;;;;28.86;37.68;99756.31;6279611;28;20088;-74
2021/09/16 12:59:57;;;;;;;16.08;4.55;;;;;;;28.67;36.84;99749.25;6264558;28;20116;-75
2021/09/16 13:02:58;;;;;;;5.72;3.97;;;;;;;28.58;37.12;99758.59;6248835;28;20045;-75
2021/09/16 13:06:14;;;;;;;9.38;4.75;;;;;;;28.39;36.45;99752.31;6281011;28;20067;-76
2021/09/16 13:09:31;;;;;;;11.27;4.78;;;;;;;28.33;37.81;99745.97;6280903;28;20072;-76
2021/09/16 13:12:33;;;;;;;7.55;4.28;;;;;;;28.19;37.57;99742.56;6248767;28;20065;-76
2021/09/16 13:15:36;;;;;;;11.38;4.15;;;;;;;28.06;37.48;99737.28;6280677;28;20103;-76
2021/09/16 13:18:37;;;;;;;14.88;4.20;;;;;;;28.18;36.82;99742.78;6247349;28;20041;-76
2021/09/16 13:21:38;;;;;;;;;;;;;;;28.27;37.90;99734.25;6249026;28;20055;-76
2021/09/16 13:24:38;;;;;;;11.23;4.10;;;;;;;28.11;38.57;99732.09;6280561;28;19925;-75
2021/09/16 13:27:39;;;;;;;12.10;4.75;;;;;;;28.10;38.48;99725.91;6280491;28;20496;-75
2021/09/16 13:30:41;;;;;;;10.73;4.15;;;;;;;28.10;37.85;99722.41;6248573;28;20037;-75
2021/09/16 13:33:42;;;;;;;10.48;4.47;;;;;;;28.17;38.22;99716.97;6248272;28;20041;-75
2021/09/16 13:36:42;;;;;;;9.70;4.18;;;;;;;28.13;38.03;99720.13;6246850;28;20048;-76
2021/09/16 13:39:43;;;;;;;9.90;4.22;;;;;;;28.21;38.08;99727.09;6248615;28;20060;-76
2021/09/16 13:42:45;;;;;;;14.82;4.55;;;;;;;27.99;37.76;99721.22;6246794;28;20127;-76
2021/09/16 13:45:46;;;;;;;9.52;4.35;;;;;;;27.88;38.16;99728.09;6248128;28;20472;-76
2021/09/16 13:48:46;;;;;;;10.93;4.60;;;;;;;27.78;38.13;99719.69;6248047;28;20048;-74
2021/09/16 13:51:47;;;;;;;16.52;4.57;;;;;;;27.72;38.23;99720.53;6247844;28;20050;-75
2021/09/16 13:54:48;;;;;;;15.02;4.28;;;;;;;27.55;39.45;99706.81;6247862;28;20446;-75
2021/09/16 13:57:49;;;;;;;15.63;4.80;;;;;;;27.47;38.96;99709.72;6280125;28;20112;-74
2021/09/16 14:00:50;;;;;;;10.07;4.20;;;;;;;27.39;39.10;99707.28;6279730;28;20045;-74
2021/09/16 14:03:51;;;;;;;13.30;4.55;;;;;;;27.33;38.56;99703.59;6262948;28;20041;-75
2021/09/16 14:06:52;;;;;;;16.33;4.50;;;;;;;27.23;39.08;99701.34;6262863;28;20531;-75